createdAt,value
2023-05-04T00:02:28.856Z,7.96
2023-05-04T00:04:59.556Z,8.00
2023-05-04T00:07:31.112Z,7.95
2023-05-04T00:10:03.763Z,7.86
2023-05-04T00:12:34.634Z,7.82
2023-05-04T00:15:07.660Z,7.76
2023-05-04T00:17:38.240Z,7.70
2023-05-04T00:20:10.081Z,7.68
2023-05-04T00:22:41.521Z,7.63
2023-05-04T00:25:12.356Z,7.70
2023-05-04T00:27:42.955Z,7.70
2023-05-04T00:30:15.314Z,7.62
2023-05-04T00:32:46.618Z,7.64
2023-05-04T00:35:17.764Z,7.56
2023-05-04T00:37:48.618Z,7.56
2023-05-04T00:40:19.538Z,7.57
2023-05-04T00:42:50.152Z,7.57
2023-05-04T00:45:20.755Z,7.52
2023-05-04T00:47:51.637Z,7.44
2023-05-04T00:50:22.223Z,7.52
2023-05-04T00:52:54.281Z,7.36
2023-05-04T00:55:25.409Z,7.41
2023-05-04T00:57:56.803Z,7.28
2023-05-04T01:00:27.314Z,7.36
2023-05-04T01:02:58.864Z,7.34
2023-05-04T01:05:32.554Z,7.26
2023-05-04T01:08:11.132Z,7.28
2023-05-04T01:10:44.880Z,7.22
2023-05-04T01:13:17.195Z,7.15
2023-05-04T01:15:49.109Z,7.11
2023-05-04T01:18:19.864Z,7.16
2023-05-04T01:20:50.790Z,7.10
2023-05-04T01:23:22.499Z,7.06
2023-05-04T01:26:24.998Z,7.03
2023-05-04T01:29:16.907Z,6.94
2023-05-04T01:31:48.318Z,6.94
2023-05-04T01:34:19.143Z,6.88
2023-05-04T01:36:51.305Z,6.86
2023-05-04T01:39:22.375Z,6.88
2023-05-04T01:41:52.874Z,6.84
2023-05-04T01:44:25.713Z,6.83
2023-05-04T01:46:56.217Z,6.89
2023-05-04T01:49:26.788Z,6.78
2023-05-04T01:51:57.387Z,6.80
2023-05-04T01:54:27.992Z,6.85
2023-05-04T01:56:58.522Z,6.80
2023-05-04T01:59:30.869Z,6.78
2023-05-04T02:02:01.596Z,6.76
2023-05-04T02:04:34.077Z,6.66
2023-05-04T02:07:04.732Z,6.74
2023-05-04T02:09:36.599Z,6.70
2023-05-04T02:12:07.541Z,6.69
2023-05-04T02:14:38.289Z,6.68
2023-05-04T02:17:09.890Z,6.64
2023-05-04T02:19:41.028Z,6.60
2023-05-04T02:22:11.548Z,6.62
2023-05-04T02:24:42.116Z,6.67
2023-05-04T02:27:12.755Z,6.58
2023-05-04T02:29:43.170Z,6.68
2023-05-04T02:32:13.820Z,6.70
2023-05-04T02:34:44.327Z,6.66
2023-05-04T02:37:14.996Z,6.70
2023-05-04T02:39:45.529Z,6.72
2023-05-04T02:42:16.284Z,6.72
2023-05-04T02:44:46.804Z,6.70
2023-05-04T02:47:23.167Z,6.66
2023-05-04T02:49:53.864Z,6.76
2023-05-04T02:52:26.243Z,6.73
2023-05-04T02:54:57.778Z,6.70
2023-05-04T02:57:28.400Z,6.66
2023-05-04T02:59:59.986Z,6.71
2023-05-04T03:02:30.623Z,6.58
2023-05-04T03:05:02.371Z,6.60
2023-05-04T03:07:32.834Z,6.63
2023-05-04T03:10:04.217Z,6.60
2023-05-04T03:12:36.611Z,6.51
2023-05-04T03:15:10.048Z,6.52
2023-05-04T03:17:40.714Z,6.53
2023-05-04T03:20:13.224Z,6.48
2023-05-04T03:22:45.355Z,6.46
2023-05-04T03:25:16.088Z,6.43
2023-05-04T03:27:46.902Z,6.40
2023-05-04T03:30:17.698Z,6.46
2023-05-04T03:32:53.472Z,6.42
2023-05-04T03:35:25.012Z,6.44
2023-05-04T03:37:58.683Z,6.48
2023-05-04T03:40:28.339Z,6.44
2023-05-04T03:42:58.771Z,6.46
2023-05-04T03:45:29.296Z,6.47
2023-05-04T03:48:00.526Z,6.50
2023-05-04T03:50:31.920Z,6.50
2023-05-04T03:53:05.495Z,6.40
2023-05-04T03:55:36.226Z,6.50
2023-05-04T03:58:06.885Z,6.51
2023-05-04T04:00:38.946Z,6.52
2023-05-04T04:03:09.777Z,6.56
2023-05-04T04:05:40.647Z,6.52
2023-05-04T04:08:14.286Z,6.60
2023-05-04T04:10:44.889Z,6.58
2023-05-04T04:13:15.892Z,6.58
2023-05-04T04:15:46.879Z,6.63
2023-05-04T04:18:17.678Z,6.62
2023-05-04T04:20:48.669Z,6.67
2023-05-04T04:23:22.350Z,6.76
2023-05-04T04:25:54.109Z,6.83
2023-05-04T04:28:24.697Z,6.84
2023-05-04T04:30:55.248Z,6.83
2023-05-04T04:33:26.340Z,6.86
2023-05-04T04:35:56.812Z,6.90
2023-05-04T04:38:28.660Z,6.87
2023-05-04T04:40:59.236Z,6.98
2023-05-04T04:43:29.697Z,7.09
2023-05-04T04:46:00.374Z,7.16
2023-05-04T04:48:32.552Z,7.18
2023-05-04T04:51:04.497Z,7.24
2023-05-04T04:53:34.989Z,7.39
2023-05-04T04:56:07.737Z,7.58
2023-05-04T04:58:38.218Z,7.67
2023-05-04T05:01:08.843Z,8.96
2023-05-04T05:03:39.403Z,10.48
2023-05-04T05:06:11.480Z,12.18
2023-05-04T05:08:43.814Z,12.89
2023-05-04T05:11:14.528Z,13.52
2023-05-04T05:13:45.116Z,13.58
2023-05-04T05:16:18.259Z,15.96
2023-05-04T05:18:48.992Z,16.44
2023-05-04T05:21:20.424Z,15.76
2023-05-04T05:23:50.862Z,15.18
2023-05-04T05:26:21.795Z,14.58
2023-05-04T05:28:53.499Z,13.60
2023-05-04T05:31:24.118Z,13.80
2023-05-04T05:33:54.908Z,15.94
2023-05-04T05:36:27.854Z,16.27
2023-05-04T05:38:58.683Z,16.56
2023-05-04T05:41:30.766Z,16.60
2023-05-04T05:44:01.665Z,15.44
2023-05-04T05:46:33.401Z,14.54
2023-05-04T05:49:08.332Z,15.42
2023-05-04T05:51:40.976Z,16.66
2023-05-04T05:54:12.981Z,16.80
2023-05-04T05:56:43.584Z,16.56
2023-05-04T05:59:15.834Z,17.19
2023-05-04T06:01:46.404Z,17.38
2023-05-04T06:04:17.226Z,18.53
2023-05-04T06:06:48.426Z,20.45
2023-05-04T06:09:21.183Z,20.64
2023-05-04T06:11:53.389Z,20.90
2023-05-04T06:14:25.369Z,20.84
2023-05-04T06:16:56.380Z,20.99
2023-05-04T06:19:28.014Z,21.09
2023-05-04T06:21:59.698Z,19.91
2023-05-04T06:24:32.113Z,17.75
2023-05-04T06:27:03.706Z,17.81
2023-05-04T06:29:34.309Z,16.36
2023-05-04T06:32:05.310Z,17.82
2023-05-04T06:34:55.992Z,19.40
2023-05-04T06:37:26.520Z,17.13
2023-05-04T06:39:57.009Z,16.12
2023-05-04T06:42:31.766Z,15.72
2023-05-04T06:45:03.642Z,14.55
2023-05-04T06:47:39.604Z,13.14
2023-05-04T06:50:12.639Z,12.26
2023-05-04T06:52:44.992Z,11.94
2023-05-04T06:55:16.151Z,11.95
2023-05-04T06:57:46.971Z,12.13
2023-05-04T07:00:19.364Z,11.98
2023-05-04T07:02:53.038Z,12.03
2023-05-04T07:05:24.729Z,11.93
2023-05-04T07:07:55.720Z,11.84
2023-05-04T07:10:26.300Z,11.88
2023-05-04T07:12:57.434Z,12.06
2023-05-04T07:15:30.673Z,12.17
2023-05-04T07:18:02.806Z,12.13
2023-05-04T07:20:33.734Z,12.51
2023-05-04T07:23:04.945Z,12.37
2023-05-04T07:25:37.147Z,12.30
2023-05-04T07:28:07.790Z,12.42
2023-05-04T07:30:38.532Z,12.49
2023-05-04T07:33:09.808Z,12.67
2023-05-04T07:35:42.070Z,12.67
2023-05-04T07:38:13.065Z,12.72
2023-05-04T07:40:46.889Z,12.87
2023-05-04T07:43:18.228Z,13.18
2023-05-04T07:45:48.921Z,13.25
2023-05-04T07:48:20.044Z,13.26
2023-05-04T07:50:52.553Z,13.24
2023-05-04T07:53:25.018Z,13.48
2023-05-04T07:55:57.178Z,13.40
2023-05-04T07:58:29.169Z,13.60
2023-05-04T08:01:00.310Z,13.59
2023-05-04T08:03:34.002Z,13.84
2023-05-04T08:06:06.079Z,13.99
2023-05-04T08:08:38.256Z,13.90
2023-05-04T08:11:20.358Z,13.96
2023-05-04T08:13:52.773Z,13.98
2023-05-04T08:16:23.349Z,14.34
2023-05-04T08:18:53.970Z,14.34
2023-05-04T08:21:25.548Z,14.00
2023-05-04T08:23:57.463Z,14.24
2023-05-04T08:26:28.175Z,14.12
2023-05-04T08:29:10.837Z,14.00
2023-05-04T08:31:41.527Z,14.06
2023-05-04T08:34:12.142Z,14.38
2023-05-04T08:36:42.557Z,14.46
2023-05-04T08:39:13.786Z,14.40
2023-05-04T08:41:44.759Z,14.61
2023-05-04T08:44:18.800Z,15.03
2023-05-04T08:46:54.955Z,15.00
2023-05-04T08:49:25.747Z,14.98
2023-05-04T08:51:57.704Z,15.19
2023-05-04T08:54:30.908Z,15.31
2023-05-04T08:57:06.554Z,14.96
2023-05-04T08:59:38.279Z,14.88
2023-05-04T09:02:11.366Z,14.64
2023-05-04T09:04:45.284Z,14.71
2023-05-04T09:07:17.629Z,14.59
2023-05-04T09:09:51.381Z,14.90
2023-05-04T09:12:21.799Z,15.34
2023-05-04T09:14:52.312Z,15.54
2023-05-04T09:17:25.521Z,15.44
2023-05-04T09:20:04.694Z,15.70
2023-05-04T09:22:36.581Z,15.72
2023-05-04T09:25:10.354Z,15.66
2023-05-04T09:27:42.541Z,15.68
2023-05-04T09:30:15.386Z,15.86
2023-05-04T09:32:52.898Z,15.80
2023-05-04T09:35:33.833Z,16.10
2023-05-04T09:38:04.718Z,16.08
2023-05-04T09:40:40.314Z,16.16
2023-05-04T09:43:15.462Z,16.39
2023-05-04T09:45:50.110Z,16.08
2023-05-04T09:48:25.924Z,15.59
2023-05-04T09:50:57.944Z,15.78
2023-05-04T09:53:32.481Z,16.00
2023-05-04T09:56:22.913Z,16.08
2023-05-04T09:58:55.572Z,15.31
2023-05-04T10:01:30.704Z,15.44
2023-05-04T10:04:02.127Z,15.78
2023-05-04T10:06:33.876Z,15.94
2023-05-04T10:09:04.549Z,16.35
2023-05-04T10:11:35.857Z,16.72
2023-05-04T10:14:07.315Z,17.16
2023-05-04T10:17:17.875Z,17.28
2023-05-04T10:20:03.562Z,16.85
2023-05-04T10:22:59.602Z,16.98
2023-05-04T10:26:08.192Z,16.74
2023-05-04T10:28:45.832Z,16.84
2023-05-04T10:31:18.006Z,17.30
2023-05-04T10:33:51.646Z,16.90
2023-05-04T10:36:23.837Z,17.00
2023-05-04T10:38:55.219Z,16.76
2023-05-04T10:41:25.873Z,16.46
2023-05-04T10:44:07.174Z,16.47
2023-05-04T10:46:38.427Z,16.50
2023-05-04T10:49:21.064Z,16.75
2023-05-04T10:51:52.237Z,17.36
2023-05-04T10:54:23.353Z,17.26
2023-05-04T10:56:58.260Z,17.36
2023-05-04T10:59:30.969Z,18.05
2023-05-04T11:02:05.088Z,17.82
2023-05-04T11:04:36.404Z,17.84
2023-05-04T11:07:09.834Z,17.08
2023-05-04T11:09:44.273Z,17.13
2023-05-04T11:12:16.526Z,17.54
2023-05-04T11:14:47.018Z,17.71
2023-05-04T11:19:52.080Z,18.02
2023-05-04T11:22:23.550Z,18.68
2023-05-04T11:24:56.321Z,18.96
2023-05-04T11:27:30.705Z,18.88
2023-05-04T11:30:04.579Z,18.66
2023-05-04T11:32:43.743Z,17.94
2023-05-04T11:35:26.551Z,17.74
2023-05-04T11:37:57.722Z,17.70
2023-05-04T11:40:28.753Z,18.68
2023-05-04T11:43:00.461Z,18.73
2023-05-04T11:45:34.161Z,18.09
2023-05-04T11:48:05.496Z,17.64
2023-05-04T11:50:36.578Z,17.94
2023-05-04T11:53:12.197Z,18.58
2023-05-04T11:55:43.076Z,19.34
2023-05-04T11:58:13.669Z,19.67
2023-05-04T12:00:46.325Z,20.04
2023-05-04T12:03:19.748Z,20.00
2023-05-04T12:05:52.872Z,19.58
2023-05-04T12:08:33.972Z,19.17
2023-05-04T12:11:13.494Z,18.96
2023-05-04T12:13:46.198Z,19.73
2023-05-04T12:16:19.179Z,20.13
2023-05-04T12:18:50.055Z,19.90
2023-05-04T12:21:25.515Z,19.86
2023-05-04T12:24:00.292Z,20.30
2023-05-04T12:26:31.270Z,18.66
2023-05-04T12:29:02.410Z,18.04
2023-05-04T12:31:33.013Z,18.67
2023-05-04T12:34:04.485Z,19.37
2023-05-04T12:36:38.674Z,19.78
2023-05-04T12:39:09.250Z,20.08
2023-05-04T12:41:40.241Z,19.34
2023-05-04T12:44:11.787Z,18.85
2023-05-04T12:46:43.702Z,19.30
2023-05-04T12:49:19.046Z,19.38
2023-05-04T12:51:51.034Z,19.70
2023-05-04T12:54:21.580Z,19.13
2023-05-04T12:56:53.707Z,19.89
2023-05-04T12:59:26.380Z,20.34
2023-05-04T13:01:57.320Z,19.97
2023-05-04T13:04:29.740Z,19.33
2023-05-04T13:07:00.728Z,20.56
2023-05-04T13:09:31.628Z,20.88
2023-05-04T13:12:02.244Z,20.51
2023-05-04T13:14:39.544Z,20.90
2023-05-04T13:17:05.252Z,20.70
2023-05-04T13:19:36.573Z,20.06
2023-05-04T13:22:08.393Z,19.93
2023-05-04T13:24:38.831Z,19.83
2023-05-04T13:27:09.465Z,19.37
2023-05-04T13:29:44.118Z,19.30
2023-05-04T13:32:13.945Z,19.36
2023-05-04T13:34:44.753Z,19.42
2023-05-04T13:37:17.194Z,19.12
2023-05-04T13:39:48.683Z,19.39
2023-05-04T13:42:19.301Z,20.13
2023-05-04T13:44:50.440Z,20.24
2023-05-04T13:47:21.743Z,19.72
2023-05-04T13:49:54.066Z,19.61
2023-05-04T13:52:24.819Z,19.02
2023-05-04T13:54:55.397Z,19.46
2023-05-04T13:57:29.731Z,19.79
2023-05-04T14:00:07.529Z,19.56
2023-05-04T14:02:35.108Z,19.77
2023-05-04T14:05:07.474Z,20.28
2023-05-04T14:07:38.444Z,20.44
2023-05-04T14:10:09.688Z,20.87
2023-05-04T14:12:40.804Z,20.88
2023-05-04T14:15:12.017Z,20.52
2023-05-04T14:17:42.470Z,20.68
2023-05-04T14:20:13.961Z,20.90
2023-05-04T14:22:45.989Z,21.08
2023-05-04T14:25:16.889Z,20.79
2023-05-04T14:27:47.426Z,20.74
2023-05-04T14:30:19.745Z,20.70
2023-05-04T14:32:53.697Z,20.48
2023-05-04T14:35:26.672Z,19.53
2023-05-04T14:37:57.144Z,19.15
2023-05-04T14:40:27.955Z,18.94
2023-05-04T14:43:00.659Z,18.66
2023-05-04T14:45:32.867Z,18.90
2023-05-04T14:48:03.425Z,19.57
2023-05-04T14:50:36.944Z,19.91
2023-05-04T14:53:08.415Z,20.38
2023-05-04T14:55:40.520Z,20.47
2023-05-04T14:58:12.807Z,20.63
2023-05-04T15:00:43.450Z,20.75
2023-05-04T15:03:14.494Z,20.17
2023-05-04T15:05:46.336Z,20.14
2023-05-04T15:08:17.107Z,19.77
2023-05-04T15:10:47.611Z,20.15
2023-05-04T15:13:20.241Z,20.37
2023-05-04T15:15:51.177Z,20.44
2023-05-04T15:18:23.568Z,21.12
2023-05-04T15:20:54.061Z,20.06
2023-05-04T15:23:24.606Z,20.12
2023-05-04T15:25:56.049Z,20.57
2023-05-04T15:28:26.565Z,20.54
2023-05-04T15:30:57.742Z,20.39
2023-05-04T15:33:28.454Z,20.38
2023-05-04T15:36:00.575Z,20.56
2023-05-04T15:38:31.106Z,20.62
2023-05-04T15:41:04.838Z,20.34
2023-05-04T15:43:41.380Z,20.16
2023-05-04T15:46:12.070Z,20.58
2023-05-04T15:48:43.164Z,20.80
2023-05-04T15:51:14.599Z,20.00
2023-05-04T15:53:48.020Z,19.91
2023-05-04T15:56:21.764Z,20.12
2023-05-04T15:58:53.746Z,20.30
2023-05-04T16:01:24.894Z,20.08
2023-05-04T16:03:57.524Z,20.43
2023-05-04T16:06:30.056Z,20.49
2023-05-04T16:09:01.169Z,20.58
2023-05-04T16:11:37.752Z,20.53
2023-05-04T16:14:09.297Z,20.62
2023-05-04T16:16:40.155Z,20.61
2023-05-04T16:19:11.766Z,20.37
2023-05-04T16:21:43.986Z,20.00
2023-05-04T16:24:15.659Z,19.80
2023-05-04T16:26:47.881Z,19.63
2023-05-04T16:29:18.452Z,19.92
2023-05-04T16:31:50.942Z,19.84
2023-05-04T16:34:21.464Z,19.97
2023-05-04T16:36:52.227Z,20.26
2023-05-04T16:39:22.801Z,20.12
2023-05-04T16:41:55.635Z,19.56
2023-05-04T16:44:27.817Z,19.38
2023-05-04T16:47:00.339Z,19.63
2023-05-04T16:49:31.373Z,19.68
2023-05-04T16:52:03.007Z,19.63
2023-05-04T16:54:35.129Z,19.56
2023-05-04T16:57:05.902Z,19.50
2023-05-04T16:59:36.391Z,19.65
2023-05-04T17:02:08.573Z,19.90
2023-05-04T17:04:39.376Z,20.18
2023-05-04T17:07:11.770Z,20.02
2023-05-04T17:09:42.817Z,19.92
2023-05-04T17:12:15.063Z,19.56
2023-05-04T17:14:46.175Z,19.32
2023-05-04T17:17:16.846Z,19.28
2023-05-04T17:19:47.732Z,19.22
2023-05-04T17:22:18.621Z,19.11
2023-05-04T17:24:49.248Z,18.95
2023-05-04T17:27:19.907Z,18.96
2023-05-04T17:29:52.178Z,18.74
2023-05-04T17:32:24.730Z,18.54
2023-05-04T17:35:01.240Z,18.44
2023-05-04T17:37:30.643Z,18.34
2023-05-04T17:40:01.717Z,18.16
2023-05-04T17:42:34.353Z,18.16
2023-05-04T17:45:08.384Z,17.97
2023-05-04T17:47:40.757Z,17.84
2023-05-04T17:50:11.569Z,17.89
2023-05-04T17:52:44.350Z,17.75
2023-05-04T17:55:16.766Z,17.63
2023-05-04T17:57:50.643Z,17.62
2023-05-04T18:00:22.360Z,17.49
2023-05-04T18:02:53.866Z,17.40
2023-05-04T18:05:27.347Z,17.45
2023-05-04T18:08:02.363Z,17.42
2023-05-04T18:10:37.098Z,17.33
2023-05-04T18:13:09.262Z,17.38
2023-05-04T18:15:42.014Z,17.18
2023-05-04T18:18:12.455Z,17.14
2023-05-04T18:20:43.289Z,17.00
2023-05-04T18:23:14.713Z,16.90
2023-05-04T18:25:45.258Z,16.82
2023-05-04T18:28:17.376Z,16.80
2023-05-04T18:30:47.947Z,16.75
2023-05-04T18:33:18.553Z,16.63
2023-05-04T18:35:49.072Z,16.61
2023-05-04T18:38:19.523Z,16.46
2023-05-04T18:40:53.581Z,16.45
2023-05-04T18:43:23.976Z,16.34
2023-05-04T18:45:54.695Z,16.34
2023-05-04T18:48:27.127Z,16.24
2023-05-04T18:50:58.138Z,16.23
2023-05-04T18:53:29.942Z,16.09
2023-05-04T18:56:12.187Z,16.11
2023-05-04T18:58:42.667Z,16.08
2023-05-04T19:01:14.678Z,16.06
2023-05-04T19:03:47.880Z,16.08
2023-05-04T19:06:18.436Z,16.03
2023-05-04T19:08:49.227Z,16.02
2023-05-04T19:11:22.645Z,16.02
2023-05-04T19:13:56.049Z,15.99
2023-05-04T19:16:29.301Z,15.93
2023-05-04T19:19:02.913Z,15.98
2023-05-04T19:21:36.448Z,15.93
2023-05-04T19:24:07.780Z,15.86
2023-05-04T19:26:39.789Z,15.88
2023-05-04T19:29:11.874Z,15.90
2023-05-04T19:31:42.472Z,15.84
2023-05-04T19:34:15.511Z,15.89
2023-05-04T19:36:46.086Z,15.76
2023-05-04T19:39:17.062Z,15.77
2023-05-04T19:41:47.670Z,15.75
2023-05-04T19:44:18.297Z,15.71
2023-05-04T19:46:50.917Z,15.69
2023-05-04T19:49:22.863Z,15.69
2023-05-04T19:51:54.340Z,15.73
2023-05-04T19:54:26.132Z,15.68
2023-05-04T19:56:56.714Z,15.65
2023-05-04T19:59:28.945Z,15.58
2023-05-04T20:02:02.097Z,15.56
2023-05-04T20:04:33.821Z,15.60
2023-05-04T20:07:05.939Z,15.54
2023-05-04T20:09:37.928Z,15.44
2023-05-04T20:12:10.761Z,15.39
2023-05-04T20:14:43.270Z,15.40
2023-05-04T20:17:15.883Z,15.35
2023-05-04T20:19:47.489Z,15.36
2023-05-04T20:22:17.949Z,15.31
2023-05-04T20:24:50.927Z,15.26
2023-05-04T20:27:22.593Z,15.20
2023-05-04T20:29:53.214Z,15.15
2023-05-04T20:32:23.877Z,15.16
2023-05-04T20:34:54.453Z,15.11
2023-05-04T20:37:26.543Z,15.00
2023-05-04T20:40:00.846Z,14.95
2023-05-04T20:42:31.810Z,14.84
2023-05-04T20:45:02.446Z,14.74
2023-05-04T20:47:36.304Z,14.63
2023-05-04T20:50:10.434Z,14.60
2023-05-04T20:52:41.908Z,14.46
2023-05-04T20:55:13.004Z,14.42
2023-05-04T20:57:43.593Z,14.33
2023-05-04T21:00:15.520Z,14.31
2023-05-04T21:02:47.933Z,14.25
2023-05-04T21:05:20.652Z,14.26
2023-05-04T21:07:54.579Z,14.17
2023-05-04T21:10:26.648Z,14.11
2023-05-04T21:12:59.054Z,14.03
2023-05-04T21:15:30.024Z,13.93
2023-05-04T21:18:03.718Z,13.84
2023-05-04T21:20:34.783Z,13.82
2023-05-04T21:23:05.785Z,13.84
2023-05-04T21:25:37.539Z,13.74
2023-05-04T21:28:08.545Z,13.76
2023-05-04T21:30:48.992Z,13.74
2023-05-04T21:33:19.569Z,13.64
2023-05-04T21:35:50.700Z,13.58
2023-05-04T21:38:22.732Z,13.53
2023-05-04T21:40:54.825Z,13.46
2023-05-04T21:43:25.436Z,13.43
2023-05-04T21:45:58.364Z,13.38
2023-05-04T21:48:31.635Z,13.30
2023-05-04T21:51:02.526Z,13.22
2023-05-04T21:53:37.704Z,13.04
2023-05-04T21:56:10.282Z,12.97
2023-05-04T21:58:42.071Z,12.91
2023-05-04T22:01:17.696Z,12.80
2023-05-04T22:03:48.397Z,12.74
2023-05-04T22:06:20.560Z,12.69
2023-05-04T22:09:10.247Z,12.59
2023-05-04T22:11:41.230Z,12.48
2023-05-04T22:14:11.794Z,12.42
2023-05-04T22:16:45.174Z,12.38
2023-05-04T22:19:15.747Z,12.27
2023-05-04T22:21:47.034Z,12.21
2023-05-04T22:24:17.779Z,12.19
2023-05-04T22:26:48.752Z,12.13
2023-05-04T22:29:19.481Z,12.04
2023-05-04T22:31:50.109Z,11.95
2023-05-04T22:34:20.754Z,11.95
2023-05-04T22:36:51.295Z,11.88
2023-05-04T22:39:22.109Z,11.88
2023-05-04T22:41:54.099Z,11.87
2023-05-04T22:44:24.661Z,11.81
2023-05-04T22:46:56.926Z,11.79
2023-05-04T22:49:27.444Z,11.77
2023-05-04T22:51:57.917Z,11.66
2023-05-04T22:54:28.456Z,11.55
2023-05-04T22:56:59.491Z,11.50
2023-05-04T22:59:31.416Z,11.42
2023-05-04T23:02:04.076Z,11.40
2023-05-04T23:04:34.774Z,11.33
2023-05-04T23:07:05.247Z,11.24
2023-05-04T23:09:43.853Z,11.25
2023-05-04T23:12:15.939Z,11.20
2023-05-04T23:14:48.065Z,11.12
2023-05-04T23:17:18.637Z,11.10
2023-05-04T23:19:49.262Z,11.04
2023-05-04T23:22:21.320Z,10.99
2023-05-04T23:24:51.905Z,10.99
2023-05-04T23:27:22.398Z,10.95
2023-05-04T23:29:53.161Z,10.90
2023-05-04T23:32:23.697Z,10.97
2023-05-04T23:34:54.220Z,10.92
2023-05-04T23:37:24.714Z,10.89
2023-05-04T23:39:55.180Z,10.90
2023-05-04T23:42:26.312Z,10.88
2023-05-04T23:44:57.438Z,10.86
2023-05-04T23:47:28.302Z,10.86
2023-05-04T23:49:59.071Z,10.84
2023-05-04T23:52:29.913Z,10.84
2023-05-04T23:55:02.627Z,10.83
2023-05-04T23:57:33.221Z,10.84
